createdAt,value
2022-09-15T00:00:19.926Z,100676.03
2022-09-15T00:02:50.771Z,100674.31
2022-09-15T00:05:21.051Z,100667.19
2022-09-15T00:07:51.662Z,100664.97
2022-09-15T00:10:21.762Z,100669.06
2022-09-15T00:12:51.750Z,100664.88
2022-09-15T00:15:21.674Z,100663.31
2022-09-15T00:17:54.065Z,100664.03
2022-09-15T00:20:24.638Z,100657.09
2022-09-15T00:22:54.805Z,100658.28
2022-09-15T00:25:24.830Z,100664.81
2022-09-15T00:27:54.778Z,100662.25
2022-09-15T00:30:24.719Z,100662.34
2022-09-15T00:32:55.763Z,100661.88
2022-09-15T00:35:26.363Z,100662.00
2022-09-15T00:37:57.776Z,100665.59
2022-09-15T00:40:29.838Z,100660.09
2022-09-15T00:43:01.655Z,100658.78
2022-09-15T00:45:32.993Z,100656.69
2022-09-15T00:48:15.185Z,100656.56
2022-09-15T00:50:53.122Z,100648.09
2022-09-15T00:53:25.205Z,100650.78
2022-09-15T00:55:57.743Z,100657.09
2022-09-15T00:59:02.809Z,100655.53
2022-09-15T01:01:35.182Z,100652.13
2022-09-15T01:04:06.106Z,100649.03
2022-09-15T01:06:52.381Z,100652.44
2022-09-15T01:09:32.599Z,100648.97
2022-09-15T01:12:03.165Z,100653.91
2022-09-15T01:14:33.539Z,100656.13
2022-09-15T01:17:29.401Z,100661.09
2022-09-15T01:20:39.188Z,100655.69
2022-09-15T01:23:58.695Z,100662.84
2022-09-15T01:26:40.575Z,100661.19
2022-09-15T01:29:28.897Z,100654.50
2022-09-15T01:32:45.210Z,100646.19
2022-09-15T01:35:41.063Z,100646.53
2022-09-15T01:38:34.960Z,100653.63
2022-09-15T01:41:29.958Z,100647.81
2022-09-15T01:44:18.488Z,100649.84
2022-09-15T01:46:52.510Z,100653.56
2022-09-15T01:49:27.571Z,100651.50
2022-09-15T01:51:58.186Z,100643.16
2022-09-15T01:54:38.865Z,100641.56
2022-09-15T01:57:09.437Z,100641.09
2022-09-15T01:59:39.471Z,100645.25
2022-09-15T02:02:22.627Z,100641.53
2022-09-15T02:05:02.240Z,100635.88
2022-09-15T02:07:58.846Z,100624.34
2022-09-15T02:10:52.612Z,100620.28
2022-09-15T02:13:33.603Z,100628.19
2022-09-15T02:16:03.807Z,100622.28
2022-09-15T02:18:49.459Z,100615.91
2022-09-15T02:21:25.484Z,100618.97
2022-09-15T02:24:04.722Z,100606.31
2022-09-15T02:26:37.160Z,100602.09
2022-09-15T02:29:13.791Z,100600.56
2022-09-15T02:31:51.763Z,100591.22
2022-09-15T02:34:29.172Z,100590.97
2022-09-15T02:36:59.728Z,100584.09
2022-09-15T02:39:36.066Z,100582.53
2022-09-15T02:42:06.928Z,100578.00
2022-09-15T02:44:38.274Z,100569.66
2022-09-15T02:47:08.939Z,100566.75
2022-09-15T02:49:39.483Z,100554.56
2022-09-15T02:52:09.585Z,100551.09
2022-09-15T02:54:40.589Z,100545.97
2022-09-15T02:57:11.234Z,100541.41
2022-09-15T02:59:59.269Z,100534.41
2022-09-15T03:02:29.505Z,100523.84
2022-09-15T03:05:00.008Z,100524.47
2022-09-15T03:07:30.175Z,100522.09
2022-09-15T03:10:00.448Z,100506.38
2022-09-15T03:12:31.696Z,100499.59
2022-09-15T03:15:01.719Z,100490.16
2022-09-15T03:17:36.191Z,100489.34
2022-09-15T03:20:09.307Z,100487.50
2022-09-15T03:22:39.817Z,100473.97
2022-09-15T03:25:12.243Z,100468.81
2022-09-15T03:27:43.608Z,100464.53
2022-09-15T03:30:17.449Z,100459.06
2022-09-15T03:32:47.661Z,100453.41
2022-09-15T03:35:17.791Z,100443.94
2022-09-15T03:37:47.738Z,100435.00
2022-09-15T03:40:18.773Z,100429.88
2022-09-15T03:42:49.079Z,100427.19
2022-09-15T03:45:23.075Z,100425.56
2022-09-15T03:47:56.620Z,100419.59
2022-09-15T03:50:26.519Z,100420.94
2022-09-15T03:52:58.800Z,100414.19
2022-09-15T03:55:30.189Z,100410.38
2022-09-15T03:58:00.371Z,100402.00
2022-09-15T04:00:30.618Z,100394.69
2022-09-15T04:03:00.626Z,100391.41
2022-09-15T04:05:30.877Z,100388.97
2022-09-15T04:08:01.363Z,100384.38
2022-09-15T04:10:32.701Z,100370.81
2022-09-15T04:13:02.701Z,100369.47
2022-09-15T04:15:32.595Z,100371.66
2022-09-15T04:18:02.709Z,100367.31
2022-09-15T04:20:34.154Z,100359.47
2022-09-15T04:23:04.143Z,100349.72
2022-09-15T04:25:34.177Z,100340.75
2022-09-15T04:28:04.326Z,100342.38
2022-09-15T04:30:34.692Z,100341.03
2022-09-15T04:33:04.910Z,100327.19
2022-09-15T04:35:35.379Z,100317.72
2022-09-15T04:38:05.435Z,100317.16
2022-09-15T04:40:35.555Z,100310.09
2022-09-15T04:43:06.107Z,100311.19
2022-09-15T04:45:36.226Z,100304.69
2022-09-15T04:48:06.631Z,100299.78
2022-09-15T04:50:36.697Z,100295.44
2022-09-15T04:53:06.714Z,100294.88
2022-09-15T04:55:37.253Z,100291.09
2022-09-15T04:58:07.701Z,100279.16
2022-09-15T05:00:46.042Z,100269.94
2022-09-15T05:03:16.777Z,100270.19
2022-09-15T05:05:47.887Z,100284.03
2022-09-15T05:08:18.142Z,100265.59
2022-09-15T05:10:48.416Z,100260.44
2022-09-15T05:13:18.649Z,100264.00
2022-09-15T05:15:48.941Z,100259.91
2022-09-15T05:18:19.335Z,100259.38
2022-09-15T05:20:48.998Z,100260.16
2022-09-15T05:23:20.266Z,100250.97
2022-09-15T05:26:01.899Z,100242.56
2022-09-15T05:28:38.938Z,100240.91
2022-09-15T05:31:16.586Z,100234.41
2022-09-15T05:33:49.344Z,100231.94
2022-09-15T05:36:22.421Z,100232.47
2022-09-15T05:38:58.392Z,100229.22
2022-09-15T05:41:29.511Z,100222.41
2022-09-15T05:44:04.472Z,100227.00
2022-09-15T05:46:34.954Z,100221.59
2022-09-15T05:49:05.143Z,100212.91
2022-09-15T05:51:35.371Z,100207.47
2022-09-15T05:54:05.561Z,100209.63
2022-09-15T05:56:37.040Z,100197.97
2022-09-15T05:59:07.615Z,100193.59
2022-09-15T06:01:38.979Z,100195.50
2022-09-15T06:04:10.828Z,100191.13
2022-09-15T06:06:41.952Z,100183.22
2022-09-15T06:09:12.949Z,100183.47
2022-09-15T06:11:43.880Z,100173.47
2022-09-15T06:14:15.692Z,100179.13
2022-09-15T06:16:47.033Z,100173.44
2022-09-15T06:19:17.771Z,100172.03
2022-09-15T06:21:48.911Z,100169.06
2022-09-15T06:24:20.619Z,100149.75
2022-09-15T06:26:52.733Z,100159.25
2022-09-15T06:29:23.078Z,100152.97
2022-09-15T06:31:53.691Z,100150.50
2022-09-15T06:34:24.734Z,100145.31
2022-09-15T06:36:55.559Z,100138.22
2022-09-15T06:39:26.231Z,100139.56
2022-09-15T06:42:02.784Z,100137.09
2022-09-15T06:44:34.936Z,100131.66
2022-09-15T06:47:06.688Z,100118.88
2022-09-15T06:49:37.384Z,100116.69
2022-09-15T06:52:08.865Z,100122.34
2022-09-15T06:54:40.372Z,100111.44
2022-09-15T06:57:11.957Z,100107.59
2022-09-15T06:59:44.219Z,100098.06
2022-09-15T07:02:18.930Z,100100.47
2022-09-15T07:04:52.779Z,100096.38
2022-09-15T07:07:23.594Z,100098.81
2022-09-15T07:09:54.356Z,100093.88
2022-09-15T07:12:28.638Z,100098.25
2022-09-15T07:15:01.150Z,100096.56
2022-09-15T07:17:31.881Z,100092.19
2022-09-15T07:20:03.524Z,100092.69
2022-09-15T07:22:34.550Z,100085.88
2022-09-15T07:25:09.012Z,100092.09
2022-09-15T07:27:40.508Z,100076.28
2022-09-15T07:30:11.908Z,100077.59
2022-09-15T07:32:44.235Z,100067.25
2022-09-15T07:35:15.147Z,100066.97
2022-09-15T07:37:46.028Z,100062.59
2022-09-15T07:40:18.105Z,100070.16
2022-09-15T07:42:48.706Z,100063.06
2022-09-15T07:45:19.587Z,100066.81
2022-09-15T07:47:54.543Z,100062.41
2022-09-15T07:50:25.571Z,100063.97
2022-09-15T07:52:59.523Z,100065.50
2022-09-15T07:55:32.749Z,100055.97
2022-09-15T07:58:04.481Z,100058.19
2022-09-15T08:00:34.857Z,100051.84
2022-09-15T08:03:06.343Z,100046.13
2022-09-15T08:05:40.338Z,100049.66
2022-09-15T08:08:13.182Z,100044.75
2022-09-15T08:10:44.419Z,100039.31
2022-09-15T08:13:14.819Z,100038.47
2022-09-15T08:15:45.253Z,100043.13
2022-09-15T08:18:16.529Z,100038.47
2022-09-15T08:20:47.294Z,100037.69
2022-09-15T08:23:17.896Z,100026.78
2022-09-15T08:25:49.449Z,100029.50
2022-09-15T08:28:20.103Z,100021.94
2022-09-15T08:30:50.559Z,100020.34
2022-09-15T08:33:20.974Z,100020.09
2022-09-15T08:35:51.515Z,100020.34
2022-09-15T08:38:21.907Z,100013.25
2022-09-15T08:40:59.656Z,100016.25
2022-09-15T08:43:37.368Z,100014.97
2022-09-15T08:46:17.923Z,100009.59
2022-09-15T08:49:04.257Z,100008.53
2022-09-15T08:51:50.042Z,100015.66
2022-09-15T08:54:28.141Z,100007.56
2022-09-15T08:57:00.246Z,100007.91
2022-09-15T08:59:36.720Z,100000.13
2022-09-15T09:02:34.212Z,100002.91
2022-09-15T09:05:13.629Z,100000.81
2022-09-15T09:08:34.395Z,99994.91
2022-09-15T09:11:18.305Z,99994.47
2022-09-15T09:14:15.008Z,100002.16
2022-09-15T09:16:58.076Z,100002.78
2022-09-15T09:19:50.078Z,99998.50
2022-09-15T09:22:26.314Z,100005.88
2022-09-15T09:25:11.635Z,99995.34
2022-09-15T09:27:52.235Z,99999.19
2022-09-15T09:30:25.435Z,100000.88
2022-09-15T09:33:16.935Z,99993.84
2022-09-15T09:35:56.589Z,99995.00
2022-09-15T09:38:37.172Z,99995.84
2022-09-15T09:41:13.769Z,99992.38
2022-09-15T09:43:47.669Z,99992.41
2022-09-15T09:46:21.514Z,99988.09
2022-09-15T09:49:13.959Z,99997.94
2022-09-15T09:52:03.627Z,99997.97
2022-09-15T09:54:36.764Z,99993.66
2022-09-15T09:57:17.150Z,99998.00
2022-09-15T09:59:52.059Z,99995.31
2022-09-15T10:02:25.944Z,99991.84
2022-09-15T10:05:08.729Z,99991.59
2022-09-15T10:07:47.147Z,99991.09
2022-09-15T10:10:33.525Z,99993.84
2022-09-15T10:13:06.074Z,99989.22
2022-09-15T10:15:38.478Z,99996.03
2022-09-15T10:18:08.982Z,99992.56
2022-09-15T10:20:57.911Z,99997.72
2022-09-15T10:23:33.427Z,99988.81
2022-09-15T10:26:18.535Z,99989.38
2022-09-15T10:29:14.047Z,99985.63
2022-09-15T10:31:46.051Z,99988.38
2022-09-15T10:34:29.337Z,99989.75
2022-09-15T10:37:31.074Z,99983.53
2022-09-15T10:40:02.952Z,99994.66
2022-09-15T10:42:44.585Z,99985.50
2022-09-15T10:45:22.356Z,99985.78
2022-09-15T10:48:10.646Z,99992.84
2022-09-15T10:51:18.959Z,99986.91
2022-09-15T10:53:58.172Z,99996.09
2022-09-15T10:56:50.858Z,99998.00
2022-09-15T10:59:33.446Z,99998.53
2022-09-15T11:02:37.668Z,100001.28
2022-09-15T11:05:45.604Z,100000.19
2022-09-15T11:08:43.193Z,100007.22
2022-09-15T11:11:40.775Z,100007.22
2022-09-15T11:14:28.879Z,100007.22
2022-09-15T11:17:38.997Z,100007.50
2022-09-15T11:20:20.852Z,100018.88
2022-09-15T11:23:15.352Z,100022.38
2022-09-15T11:25:50.523Z,100023.75
2022-09-15T11:28:30.092Z,100023.44
2022-09-15T11:31:10.868Z,100032.63
2022-09-15T11:33:47.149Z,100038.03
2022-09-15T11:39:04.206Z,100041.81
2022-09-15T11:41:50.992Z,100041.00
2022-09-15T11:44:52.520Z,100046.94
2022-09-15T11:47:26.116Z,100052.91
2022-09-15T11:50:28.144Z,100065.31
2022-09-15T11:53:19.415Z,100060.72
2022-09-15T11:55:55.804Z,100070.44
2022-09-15T11:58:29.984Z,100061.78
2022-09-15T12:01:12.767Z,100071.00
2022-09-15T12:04:07.019Z,100070.16
2022-09-15T12:07:25.091Z,100080.69
2022-09-15T12:09:55.549Z,100084.22
2022-09-15T12:12:30.665Z,100087.44
2022-09-15T12:15:02.768Z,100085.25
2022-09-15T12:17:49.770Z,100095.28
2022-09-15T12:20:37.764Z,100097.44
2022-09-15T12:23:23.534Z,100097.16
2022-09-15T12:26:15.677Z,100098.72
2022-09-15T12:29:04.469Z,100091.97
2022-09-15T12:31:41.737Z,100100.59
2022-09-15T12:34:27.963Z,100099.50
2022-09-15T12:37:20.872Z,100098.69
2022-09-15T12:39:51.556Z,100099.22
2022-09-15T12:42:23.899Z,100095.97
2022-09-15T12:45:00.885Z,100100.78
2022-09-15T12:47:53.028Z,100102.13
2022-09-15T12:50:36.795Z,100107.53
2022-09-15T12:53:31.019Z,100103.72
2022-09-15T12:56:06.460Z,100109.09
2022-09-15T12:58:49.988Z,100115.03
2022-09-15T13:01:27.143Z,100107.19
2022-09-15T13:04:01.391Z,100106.38
2022-09-15T13:06:35.606Z,100107.19
2022-09-15T13:09:08.729Z,100111.78
2022-09-15T13:11:53.496Z,100109.03
2022-09-15T13:14:23.984Z,100116.06
2022-09-15T13:17:04.521Z,100116.34
2022-09-15T13:19:38.194Z,100122.53
2022-09-15T13:22:15.874Z,100119.84
2022-09-15T13:25:01.400Z,100109.56
2022-09-15T13:27:47.457Z,100121.41
2022-09-15T13:30:18.391Z,100122.50
2022-09-15T13:33:03.000Z,100131.69
2022-09-15T13:35:54.340Z,100128.16
2022-09-15T13:38:48.754Z,100126.81
2022-09-15T13:41:41.756Z,100127.06
2022-09-15T13:44:36.655Z,100130.28
2022-09-15T13:47:28.656Z,100131.59
2022-09-15T13:50:25.857Z,100126.75
2022-09-15T13:53:25.734Z,100129.44
2022-09-15T13:55:57.828Z,100137.53
2022-09-15T14:01:24.452Z,100142.09
2022-09-15T14:04:22.198Z,100144.25
2022-09-15T14:06:55.939Z,100143.44
2022-09-15T14:09:46.127Z,100145.59
2022-09-15T14:12:20.221Z,100146.09
2022-09-15T14:14:59.351Z,100144.75
2022-09-15T14:17:33.150Z,100144.16
2022-09-15T14:20:07.497Z,100142.81
2022-09-15T14:22:42.632Z,100141.16
2022-09-15T14:25:21.140Z,100144.97
2022-09-15T14:27:54.526Z,100140.88
2022-09-15T14:30:36.546Z,100141.13
2022-09-15T14:33:08.508Z,100142.47
2022-09-15T14:35:39.962Z,100151.91
2022-09-15T14:38:27.946Z,100147.56
2022-09-15T14:41:00.812Z,100155.66
2022-09-15T14:43:41.586Z,100149.69
2022-09-15T14:46:22.617Z,100155.59
2022-09-15T14:48:53.392Z,100156.09
2022-09-15T14:51:27.337Z,100145.28
2022-09-15T14:54:02.331Z,100151.22
2022-09-15T14:56:39.033Z,100149.03
2022-09-15T14:59:53.135Z,100146.03
2022-09-15T15:02:49.367Z,100134.09
2022-09-15T15:05:25.746Z,100144.59
2022-09-15T15:07:58.250Z,100142.66
2022-09-15T15:10:36.093Z,100138.28
2022-09-15T15:13:20.285Z,100139.63
2022-09-15T15:15:51.032Z,100136.88
2022-09-15T15:18:43.201Z,100137.38
2022-09-15T15:21:45.100Z,100137.59
2022-09-15T15:24:15.375Z,100139.19
2022-09-15T15:26:52.633Z,100139.69
2022-09-15T15:29:45.773Z,100135.63
2022-09-15T15:32:23.706Z,100137.75
2022-09-15T15:35:02.485Z,100130.19
2022-09-15T15:37:35.947Z,100127.97
2022-09-15T15:40:15.846Z,100129.31
2022-09-15T15:42:57.903Z,100121.47
2022-09-15T15:45:32.815Z,100119.81
2022-09-15T15:48:06.302Z,100116.56
2022-09-15T15:50:37.027Z,100116.00
2022-09-15T15:53:07.610Z,100111.91
2022-09-15T15:55:45.426Z,100110.03
2022-09-15T15:58:15.989Z,100107.34
2022-09-15T16:00:58.099Z,100101.88
2022-09-15T16:03:29.157Z,100102.88
2022-09-15T16:06:04.598Z,100100.94
2022-09-15T16:08:41.634Z,100093.13
2022-09-15T16:11:15.139Z,100097.13
2022-09-15T16:13:46.096Z,100093.88
2022-09-15T16:16:21.226Z,100096.25
2022-09-15T16:18:52.883Z,100091.34
2022-09-15T16:21:31.831Z,100090.78
2022-09-15T16:24:03.019Z,100094.81
2022-09-15T16:26:35.994Z,100086.97
2022-09-15T16:29:08.239Z,100080.75
2022-09-15T16:31:40.061Z,100082.06
2022-09-15T16:34:19.208Z,100088.28
2022-09-15T16:36:50.009Z,100082.56
2022-09-15T16:39:21.884Z,100075.56
2022-09-15T16:41:52.599Z,100084.72
2022-09-15T16:44:23.438Z,100077.94
2022-09-15T16:46:55.281Z,100075.75
2022-09-15T16:49:25.898Z,100073.78
2022-09-15T16:51:57.090Z,100074.28
2022-09-15T16:54:27.465Z,100071.88
2022-09-15T16:56:57.533Z,100062.38
2022-09-15T16:59:28.610Z,100059.38
2022-09-15T17:01:59.188Z,100063.13
2022-09-15T17:04:29.381Z,100058.81
2022-09-15T17:07:00.464Z,100062.00
2022-09-15T17:09:31.160Z,100059.75
2022-09-15T17:12:01.469Z,100053.81
2022-09-15T17:14:31.549Z,100056.75
2022-09-15T17:17:01.509Z,100052.94
2022-09-15T17:19:31.473Z,100047.25
2022-09-15T17:22:01.406Z,100046.44
2022-09-15T17:24:31.350Z,100043.97
2022-09-15T17:27:02.426Z,100043.16
2022-09-15T17:29:32.917Z,100036.63
2022-09-15T17:32:04.788Z,100035.03
2022-09-15T17:34:34.891Z,100032.25
2022-09-15T17:37:04.884Z,100028.41
2022-09-15T17:39:36.447Z,100026.47
2022-09-15T17:42:06.469Z,100021.81
2022-09-15T17:44:37.755Z,100019.63
2022-09-15T17:47:08.405Z,100017.44
2022-09-15T17:49:38.583Z,100016.78
2022-09-15T17:52:13.380Z,100018.09
2022-09-15T17:54:44.061Z,100022.91
2022-09-15T17:57:14.422Z,100016.97
2022-09-15T17:59:44.625Z,100010.94
2022-09-15T18:02:20.344Z,100019.25
2022-09-15T18:04:51.041Z,100014.84
2022-09-15T18:07:21.212Z,100011.56
2022-09-15T18:09:51.199Z,100011.00
2022-09-15T18:12:21.647Z,100004.47
2022-09-15T18:14:52.287Z,100003.53
2022-09-15T18:17:22.287Z,99999.97
2022-09-15T18:19:53.651Z,99995.91
2022-09-15T18:22:24.931Z,100001.28
2022-09-15T18:24:55.177Z,99998.59
2022-09-15T18:27:25.205Z,99995.66
2022-09-15T18:32:24.377Z,99998.34
2022-09-15T18:34:54.384Z,99995.66
2022-09-15T18:37:24.318Z,99995.91
2022-09-15T18:39:54.417Z,99995.31
2022-09-15T18:42:27.234Z,99982.94
2022-09-15T18:44:59.981Z,99993.69
2022-09-15T18:47:29.971Z,99992.06
2022-09-15T18:50:00.007Z,99985.31
2022-09-15T18:52:30.077Z,99981.72
2022-09-15T18:55:01.080Z,99984.66
2022-09-15T18:57:31.040Z,99987.72
2022-09-15T19:00:00.944Z,99987.16
2022-09-15T19:02:31.136Z,99987.28
2022-09-15T19:05:01.093Z,99992.56
2022-09-15T19:07:31.055Z,99989.56
2022-09-15T19:10:01.968Z,99986.78
2022-09-15T19:12:33.163Z,99985.53
2022-09-15T19:15:04.256Z,99976.16
2022-09-15T19:17:35.251Z,99977.25
2022-09-15T19:20:09.504Z,99972.69
2022-09-15T19:22:40.873Z,99978.06
2022-09-15T19:25:12.856Z,99985.06
2022-09-15T19:27:43.200Z,99979.13
2022-09-15T19:30:14.165Z,99982.38
2022-09-15T19:32:45.093Z,99985.06
2022-09-15T19:35:15.796Z,99977.81
2022-09-15T19:37:45.946Z,99978.06
2022-09-15T19:40:17.142Z,99977.00
2022-09-15T19:42:47.318Z,99966.50
2022-09-15T19:45:17.319Z,99980.50
2022-09-15T19:47:47.252Z,99969.19
2022-09-15T19:50:17.204Z,99965.69
2022-09-15T19:52:47.123Z,99971.31
2022-09-15T19:55:19.451Z,99975.38
2022-09-15T19:57:50.176Z,99978.84
2022-09-15T20:00:20.580Z,99973.47
2022-09-15T20:02:51.001Z,99972.69
2022-09-15T20:05:33.712Z,99976.44
2022-09-15T20:08:04.982Z,99969.66
2022-09-15T20:10:35.166Z,99970.38
2022-09-15T20:13:05.048Z,99971.19
2022-09-15T20:15:34.948Z,99974.13
2022-09-15T20:18:05.520Z,99963.00
2022-09-15T20:20:37.444Z,99964.28
2022-09-15T20:23:10.019Z,99953.44
2022-09-15T20:25:40.585Z,99950.75
2022-09-15T20:28:10.525Z,99956.63
2022-09-15T20:30:40.870Z,99970.53
2022-09-15T20:33:11.268Z,99974.03
2022-09-15T20:35:40.471Z,99971.59
2022-09-15T20:38:10.466Z,99970.44
2022-09-15T20:40:40.395Z,99965.53
2022-09-15T20:43:10.358Z,99960.16
2022-09-15T20:45:41.384Z,99960.41
2022-09-15T20:48:11.783Z,99969.88
2022-09-15T20:50:41.784Z,99964.72
2022-09-15T20:53:11.201Z,99959.81
2022-09-15T20:55:41.182Z,99968.13
2022-09-15T20:58:12.200Z,99962.19
2022-09-15T21:00:42.828Z,99971.31
2022-09-15T21:03:12.718Z,99959.97
2022-09-15T21:05:46.536Z,99965.31
2022-09-15T21:08:16.849Z,99958.56
2022-09-15T21:10:48.152Z,99969.56
2022-09-15T21:13:17.841Z,99962.56
2022-09-15T21:15:59.097Z,99959.28
2022-09-15T21:18:34.707Z,99964.91
2022-09-15T21:21:14.397Z,99968.28
2022-09-15T21:23:50.959Z,99971.44
2022-09-15T21:26:25.858Z,99968.88
2022-09-15T21:28:57.422Z,99966.34
2022-09-15T21:31:30.249Z,99967.06
2022-09-15T21:34:01.399Z,99967.50
2022-09-15T21:36:32.623Z,99975.22
2022-09-15T21:39:04.747Z,99976.50
2022-09-15T21:41:34.948Z,99978.00
2022-09-15T21:44:05.564Z,99976.63
2022-09-15T21:46:35.468Z,99977.63
2022-09-15T21:49:05.399Z,99967.78
2022-09-15T21:51:35.296Z,99975.91
2022-09-15T21:54:06.188Z,99976.97
2022-09-15T21:56:36.006Z,99983.72
2022-09-15T21:59:06.334Z,99974.06
2022-09-15T22:01:37.141Z,99971.25
2022-09-15T22:04:09.647Z,99975.34
2022-09-15T22:06:41.949Z,99983.59
2022-09-15T22:09:16.020Z,99981.19
2022-09-15T22:11:46.705Z,99982.00
2022-09-15T22:14:17.173Z,99982.00
2022-09-15T22:16:47.368Z,99985.47
2022-09-15T22:19:17.518Z,99985.25
2022-09-15T22:21:47.627Z,99979.09
2022-09-15T22:24:17.628Z,99983.16
2022-09-15T22:26:47.501Z,99987.34
2022-09-15T22:29:17.457Z,99987.72
2022-09-15T22:31:47.605Z,99992.84
2022-09-15T22:34:17.679Z,99999.59
2022-09-15T22:36:47.654Z,99997.50
2022-09-15T22:39:17.615Z,100001.00
2022-09-15T22:41:47.606Z,99989.22
2022-09-15T22:44:22.530Z,99984.69
2022-09-15T22:46:53.622Z,99985.50
2022-09-15T22:49:24.017Z,99991.66
2022-09-15T22:51:54.102Z,99996.56
2022-09-15T22:54:23.425Z,99996.91
2022-09-15T22:56:53.354Z,99997.72
2022-09-15T22:59:23.642Z,100001.81
2022-09-15T23:01:53.967Z,100012.91
2022-09-15T23:04:24.189Z,100010.78
2022-09-15T23:06:54.265Z,100000.16
2022-09-15T23:09:24.331Z,100005.06
2022-09-15T23:11:54.581Z,100001.66
2022-09-15T23:14:25.183Z,100001.19
2022-09-15T23:16:56.878Z,100003.41
2022-09-15T23:19:27.199Z,100002.44
2022-09-15T23:21:58.726Z,99992.88
2022-09-15T23:24:29.523Z,99991.13
2022-09-15T23:27:00.327Z,99989.34
2022-09-15T23:29:30.526Z,99987.00
2022-09-15T23:32:00.889Z,99986.06
2022-09-15T23:34:30.849Z,99971.31
2022-09-15T23:37:00.936Z,99980.31
2022-09-15T23:39:31.591Z,99981.47
2022-09-15T23:42:02.231Z,99981.31
2022-09-15T23:44:32.323Z,99984.94
2022-09-15T23:47:02.362Z,99974.50
2022-09-15T23:49:32.464Z,99980.53
2022-09-15T23:52:02.666Z,99980.38
2022-09-15T23:54:32.571Z,99985.84
2022-09-15T23:57:02.482Z,99980.56
2022-09-15T23:59:32.446Z,99986.59
